Nearby METAR Reports

 

YSCB - Canberra (civ/Mi, Australia
Distance from station: NNE 21km
Updated: 16/08/2020 03:00
Partly cloudy
Partly cloudy
 Wind from NW
Wind: NW 17 km/h
Temperature: 9°C
Wind Chill: 7°C
Dew Point: 5°C
Humidity: 76%
Barometer: 1006 hPa
Clouds: Partly cloudy
Visibility: 10 km
Cloud details: Partly cloudy 3810 m
2020/08/15 17:00 YSCB 151700Z AUTO 31009KT 9999 // SCT125 09/05 Q1006
YCOM - Cooma Snowy Mtns, Australia
Distance from station: S 94km
Updated: 16/08/2020 03:00
Overcast
Overcast
 Wind from SW
Wind: SW 30 km/h
Temperature: 6°C
Wind Chill: 2°C
Dew Point: 6°C
Humidity: 100%
Barometer: 1005 hPa
Clouds: Overcast
Visibility: 10 km
Cloud details: Mostly cloudy 610 m
Mostly cloudy 732 m
Overcast 853 m
2020/08/15 17:00 YCOM 151700Z AUTO 23016KT 9999 // BKN020 BKN024 OVC028 06/06 Q1005
 
YSNW - Nowra (aus-Navy), Australia
Distance from station: ENE 140km
Updated: 16/08/2020 03:00
Overcast
Overcast
 Wind from WNW
Wind: WNW 22 km/h
Temperature: 14°C
Dew Point: 8°C
Humidity: 67%
Barometer: 1003 hPa
Clouds: Overcast
Visibility: 10 km
Cloud details: Partly cloudy 2652 m
Overcast 3353 m
2020/08/15 17:00 YSNW 151700Z AUTO 29012KT 9999 // SCT087 OVC110 14/08 Q1003
YSWG - Wagga Wagga(Cv/M, Australia
Distance from station: WNW 153km
Updated: 16/08/2020 03:00
Overcast
Overcast
 Wind from varies
Wind: varies 0 km/h
Temperature: 9°C
Dew Point: 9°C
Humidity: 100%
Barometer: 1009 hPa
Clouds: Overcast
Visibility: 10 km
Cloud details: Overcast 244 m
2020/08/15 17:00 YSWG 151700Z AUTO /////KT 9999 // OVC008 09/09 Q1009
 
YMER - Merimbula Arpt, Australia
Distance from station: SSE 177km
Updated: 16/08/2020 03:00
Overcast
Overcast
 Wind from SW
Wind: SW 22 km/h
Temperature: 14°C
Dew Point: 10°C
Humidity: 77%
Barometer: 1002 hPa
Clouds: Overcast
Visibility: 10 km
Cloud details: Overcast 3048 m
2020/08/15 17:00 YMER 151700Z AUTO 23012KT 9999 // OVC100 14/10 Q1002
YMAY - Albury Airport, Australia
Distance from station: WSW 207km
Updated: 16/08/2020 03:20
Clear
Clear
 Wind from calm
Wind: Calm
Temperature: 7°C
Dew Point: 7°C
Humidity: 100%
Barometer: 1009 hPa
Clouds: Clear
Visibility: 6 km
2020/08/15 17:20 YMAY 151720Z AUTO 00000KT 6000 // NCD 07/07 Q1009
 
YNAR - Narrandera, Australia
Distance from station: WNW 250km
Updated: 16/08/2020 03:00
Overcast
Overcast
 Wind from W
Wind: W 13 km/h
Temperature: 8°C
Wind Chill: 6°C
Dew Point: 8°C
Humidity: 100%
Barometer: 1011 hPa
Clouds: Overcast
Visibility: 10 km
Cloud details: Overcast 183 m
2020/08/15 17:00 YNAR 151700Z AUTO 28007KT 9999 // OVC006 08/08 Q1011
YSSY - Sydney Intl Airp, Australia
Distance from station: NE 253km
Updated: 16/08/2020 03:00
Clear
Clear
 Wind from WNW
Wind: WNW 19 km/h
Temperature: 14°C
Dew Point: 9°C
Humidity: 72%
Barometer: 1005 hPa
Summary: Clear
Visibility: greater than 10 km
2020/08/15 17:00 YSSY 151700Z 30010KT CAVOK 14/09 Q1005
 
YSRI - Richmond (aus-Af, Australia
Distance from station: NE 257km
Updated: 16/08/2020 03:00
Partly cloudy
Partly cloudy
 Wind from WNW
Wind: WNW 7 km/h
Temperature: 14°C
Dew Point: 8°C
Humidity: 67%
Barometer: 1005 hPa
Clouds: Partly cloudy
Visibility: 10 km
Cloud details: Partly cloudy 3018 m
2020/08/15 17:00 YSRI 151700Z AUTO 30004KT 270V330 9999 // SCT099 14/08 Q1005
YWGT - Wangaratta Arp, Australia
Distance from station: WSW 274km
Updated: 16/08/2020 03:00
Clear
Clear
 Wind from SW
Wind: SW 19 km/h
Temperature: 10°C
Wind Chill: 7°C
Dew Point: 8°C
Humidity: 88%
Barometer: 1010 hPa
Clouds: Clear
Visibility: 10 km
2020/08/15 17:00 YWGT 151700Z AUTO 23010KT 9999 // NCD 10/08 Q1010
 
YGTH - Griffith Arpt, Australia
Distance from station: WNW 308km
Updated: 16/08/2020 03:00
Clear
Clear
 Wind from W
Wind: W 11 km/h
Temperature: 7°C
Wind Chill: 5°C
Dew Point: 7°C
Humidity: 100%
Barometer: 1012 hPa
Clouds: Clear
Visibility: 10 km
2020/08/15 17:00 YGTH 151700Z AUTO 28006KT 9999 // NCD 07/07 Q1012